createdAt,value
2018-09-22T00:01:38.578Z,6.00
2018-09-22T00:04:06.697Z,3.80
2018-09-22T00:06:34.187Z,4.17
2018-09-22T00:09:01.734Z,6.43
2018-09-22T00:11:29.254Z,5.97
2018-09-22T00:13:57.303Z,6.80
2018-09-22T00:16:24.817Z,6.70
2018-09-22T00:18:52.452Z,9.33
2018-09-22T00:21:19.967Z,9.67
2018-09-22T00:23:48.315Z,9.80
2018-09-22T00:26:15.817Z,5.30
2018-09-22T00:28:43.312Z,9.00
2018-09-22T00:31:10.814Z,4.77
2018-09-22T00:33:38.319Z,5.47
2018-09-22T00:36:05.803Z,8.17
2018-09-22T00:38:33.639Z,7.03
2018-09-22T00:41:02.020Z,8.73
2018-09-22T00:43:29.535Z,5.77
2018-09-22T00:45:57.020Z,7.57
2018-09-22T00:48:24.520Z,4.97
2018-09-22T00:50:52.040Z,5.80
2018-09-22T00:53:19.550Z,6.77
2018-09-22T00:55:47.063Z,6.60
2018-09-22T00:58:14.567Z,3.67
2018-09-22T01:00:42.072Z,4.83
2018-09-22T01:03:09.663Z,10.40
2018-09-22T01:05:37.183Z,5.30
2018-09-22T01:08:04.744Z,6.07
2018-09-22T01:10:32.260Z,9.80
2018-09-22T01:12:59.768Z,5.80
2018-09-22T01:15:27.332Z,8.07
2018-09-22T01:17:54.778Z,5.87
2018-09-22T01:20:22.275Z,4.73
2018-09-22T01:22:49.775Z,4.77
2018-09-22T01:25:17.315Z,4.30
2018-09-22T01:27:44.791Z,6.03
2018-09-22T01:30:12.315Z,11.03
2018-09-22T01:32:39.832Z,6.30
2018-09-22T01:35:07.331Z,5.00
2018-09-22T01:37:34.843Z,8.77
2018-09-22T01:40:02.350Z,6.00
2018-09-22T01:42:29.886Z,7.00
2018-09-22T01:44:57.414Z,5.23
2018-09-22T01:47:24.919Z,5.63
2018-09-22T01:49:52.461Z,4.90
2018-09-22T01:52:20.008Z,6.13
2018-09-22T01:54:47.468Z,4.47
2018-09-22T01:57:14.967Z,4.90
2018-09-22T01:59:42.478Z,6.67
2018-09-22T02:02:10.012Z,4.53
2018-09-22T02:04:37.516Z,6.97
2018-09-22T02:07:05.029Z,2.97
2018-09-22T02:09:32.538Z,4.70
2018-09-22T02:12:00.027Z,7.13
2018-09-22T02:14:27.543Z,6.57
2018-09-22T02:16:55.051Z,5.17
2018-09-22T02:19:22.531Z,2.63
2018-09-22T02:21:50.051Z,8.57
2018-09-22T02:24:17.579Z,4.07
2018-09-22T02:26:45.063Z,4.60
2018-09-22T02:29:12.688Z,6.97
2018-09-22T02:31:40.199Z,6.63
2018-09-22T02:34:07.688Z,5.77
2018-09-22T02:36:35.186Z,4.50
2018-09-22T02:39:04.072Z,7.23
2018-09-22T02:41:31.571Z,5.57
2018-09-22T02:43:59.042Z,6.50
2018-09-22T02:46:26.536Z,3.57
2018-09-22T02:48:54.026Z,2.70
2018-09-22T02:51:21.508Z,5.77
2018-09-22T02:53:49.015Z,7.57
2018-09-22T02:56:16.516Z,5.80
2018-09-22T02:58:44.032Z,4.77
2018-09-22T03:01:11.539Z,2.73
2018-09-22T03:03:39.038Z,5.03
2018-09-22T03:06:06.571Z,6.17
2018-09-22T03:08:34.148Z,5.53
2018-09-22T03:11:01.611Z,5.90
2018-09-22T03:13:29.094Z,4.60
2018-09-22T03:15:56.604Z,7.47
2018-09-22T03:18:24.106Z,3.23
2018-09-22T03:20:51.619Z,6.17
2018-09-22T03:23:19.128Z,3.50
2018-09-22T03:25:46.632Z,4.17
2018-09-22T03:28:14.180Z,6.87
2018-09-22T03:30:41.789Z,5.37
2018-09-22T03:33:09.265Z,7.40
2018-09-22T03:35:36.770Z,5.90
2018-09-22T03:38:04.502Z,4.63
2018-09-22T03:40:32.035Z,3.53
2018-09-22T03:42:59.543Z,4.87
2018-09-22T03:45:27.051Z,3.50
2018-09-22T03:47:54.582Z,4.07
2018-09-22T03:50:22.062Z,8.13
2018-09-22T03:52:49.572Z,3.60
2018-09-22T03:55:17.074Z,3.60
2018-09-22T03:57:44.564Z,3.57
2018-09-22T04:00:12.354Z,5.43
2018-09-22T04:02:39.924Z,3.23
2018-09-22T04:05:07.727Z,3.00
2018-09-22T04:07:35.212Z,3.80
2018-09-22T04:10:02.709Z,6.73
2018-09-22T04:12:30.231Z,9.20
2018-09-22T04:14:57.724Z,6.90
2018-09-22T04:17:25.317Z,5.90
2018-09-22T04:19:53.092Z,6.17
2018-09-22T04:22:20.579Z,4.33
2018-09-22T04:24:48.093Z,9.00
2018-09-22T04:27:15.591Z,2.60
2018-09-22T04:29:43.084Z,7.03
2018-09-22T04:32:10.578Z,10.17
2018-09-22T04:34:38.075Z,6.17
2018-09-22T04:37:05.627Z,5.87
2018-09-22T04:39:33.108Z,4.80
2018-09-22T04:42:00.616Z,5.10
2018-09-22T04:44:28.115Z,2.33
2018-09-22T04:46:55.619Z,5.37
2018-09-22T04:49:23.115Z,5.43
2018-09-22T04:51:50.721Z,7.17
2018-09-22T04:54:18.401Z,4.10
2018-09-22T04:56:45.892Z,4.70
2018-09-22T04:59:15.564Z,4.17
2018-09-22T05:01:43.068Z,4.47
2018-09-22T05:04:10.559Z,6.30
2018-09-22T05:06:38.047Z,5.60
2018-09-22T05:09:08.163Z,4.57
2018-09-22T05:11:35.670Z,5.23
2018-09-22T05:14:03.175Z,5.23
2018-09-22T05:16:30.675Z,5.13
2018-09-22T05:18:58.240Z,6.93
2018-09-22T05:21:25.942Z,6.87
2018-09-22T05:23:53.452Z,6.67
2018-09-22T05:26:21.223Z,4.33
2018-09-22T05:28:49.147Z,6.67
2018-09-22T05:31:16.700Z,5.37
2018-09-22T05:33:44.199Z,6.90
2018-09-22T05:36:11.693Z,5.10
2018-09-22T05:38:40.405Z,8.73
2018-09-22T05:41:07.943Z,7.97
2018-09-22T05:43:36.412Z,6.90
2018-09-22T05:46:03.934Z,5.63
2018-09-22T05:48:31.427Z,6.50
2018-09-22T05:50:58.913Z,5.97
2018-09-22T05:53:26.413Z,5.53
2018-09-22T05:55:53.892Z,5.83
2018-09-22T05:58:21.410Z,7.07
2018-09-22T06:00:48.962Z,4.50
2018-09-22T06:03:16.511Z,6.67
2018-09-22T06:05:44.002Z,9.80
2018-09-22T06:08:11.524Z,6.33
2018-09-22T06:10:39.123Z,6.87
2018-09-22T06:13:06.627Z,6.70
2018-09-22T06:15:34.151Z,6.47
2018-09-22T06:18:01.646Z,4.37
2018-09-22T06:20:29.196Z,7.40
2018-09-22T06:22:56.953Z,4.57
2018-09-22T06:25:24.463Z,8.63
2018-09-22T06:27:52.824Z,5.77
2018-09-22T06:30:20.324Z,4.77
2018-09-22T06:32:47.835Z,5.70
2018-09-22T06:35:15.347Z,5.87
2018-09-22T06:37:42.852Z,6.60
2018-09-22T06:40:10.344Z,5.80
2018-09-22T06:42:37.852Z,4.77
2018-09-22T06:45:05.383Z,7.47
2018-09-22T06:47:32.939Z,6.87
2018-09-22T06:50:00.493Z,7.50
2018-09-22T06:52:27.976Z,5.53
2018-09-22T06:54:55.576Z,8.80
2018-09-22T06:57:23.099Z,6.67
2018-09-22T06:59:50.592Z,8.07
2018-09-22T07:02:18.119Z,6.23
2018-09-22T07:04:45.658Z,6.07
2018-09-22T07:07:13.168Z,7.13
2018-09-22T07:09:40.801Z,3.87
2018-09-22T07:12:08.343Z,7.77
2018-09-22T07:14:35.844Z,4.17
2018-09-22T07:17:03.535Z,5.27
2018-09-22T07:19:31.295Z,6.43
2018-09-22T07:22:04.341Z,6.43
2018-09-22T07:24:31.884Z,5.33
2018-09-22T07:26:59.400Z,7.90
2018-09-22T07:29:26.915Z,5.57
2018-09-22T07:31:54.419Z,4.73
2018-09-22T07:34:21.926Z,8.83
2018-09-22T07:36:49.419Z,5.83
2018-09-22T07:39:17.000Z,8.43
2018-09-22T07:41:44.511Z,7.90
2018-09-22T07:44:12.026Z,10.17
2018-09-22T07:46:39.539Z,7.07
2018-09-22T07:49:07.179Z,6.10
2018-09-22T07:51:34.662Z,8.23
2018-09-22T07:54:02.166Z,6.43
2018-09-22T07:56:29.908Z,9.33
2018-09-22T07:58:57.399Z,8.03
2018-09-22T08:01:25.806Z,6.90
2018-09-22T08:03:54.221Z,7.43
2018-09-22T08:06:21.991Z,6.93
2018-09-22T08:08:49.479Z,12.17
2018-09-22T08:11:16.996Z,7.10
2018-09-22T08:13:44.506Z,10.20
2018-09-22T08:16:12.024Z,5.87
2018-09-22T08:18:39.516Z,6.80
2018-09-22T08:21:07.063Z,8.27
2018-09-22T08:23:34.619Z,7.60
2018-09-22T08:26:02.183Z,9.20
2018-09-22T08:28:29.687Z,10.27
2018-09-22T08:30:57.169Z,7.50
2018-09-22T08:33:24.677Z,11.13
2018-09-22T08:35:52.307Z,7.17
2018-09-22T08:38:19.863Z,7.70
2018-09-22T08:40:47.371Z,6.87
2018-09-22T08:43:14.895Z,7.03
2018-09-22T08:45:42.404Z,5.30
2018-09-22T08:48:09.926Z,9.27
2018-09-22T08:50:37.505Z,8.20
2018-09-22T08:53:05.000Z,9.57
2018-09-22T08:55:33.125Z,7.33
2018-09-22T08:58:00.649Z,6.23
2018-09-22T09:00:28.159Z,10.40
2018-09-22T09:02:55.720Z,7.03
2018-09-22T09:05:23.244Z,8.90
2018-09-22T09:07:50.766Z,9.10
2018-09-22T09:10:18.315Z,10.30
2018-09-22T09:12:45.816Z,8.37
2018-09-22T09:15:13.321Z,6.37
2018-09-22T09:17:40.833Z,10.77
2018-09-22T09:20:08.336Z,7.73
2018-09-22T09:22:35.839Z,10.87
2018-09-22T09:25:03.363Z,11.83
2018-09-22T09:27:30.920Z,7.60
2018-09-22T09:29:58.389Z,11.40
2018-09-22T09:32:25.899Z,11.40
2018-09-22T09:34:53.407Z,7.23
2018-09-22T09:37:20.895Z,6.53
2018-09-22T09:39:48.434Z,7.97
2018-09-22T09:42:16.016Z,11.57
2018-09-22T09:44:43.507Z,9.40
2018-09-22T09:47:11.023Z,11.20
2018-09-22T09:49:38.508Z,9.10
2018-09-22T09:52:06.049Z,7.80
2018-09-22T09:54:33.607Z,9.30
2018-09-22T09:57:01.077Z,7.37
2018-09-22T09:59:28.619Z,5.77
2018-09-22T10:01:56.377Z,3.83
2018-09-22T10:04:24.471Z,3.53
2018-09-22T10:06:52.328Z,4.17
2018-09-22T10:09:20.032Z,5.13
2018-09-22T10:11:47.560Z,6.03
2018-09-22T10:14:15.065Z,5.40
2018-09-22T10:16:43.469Z,6.90
2018-09-22T10:19:10.995Z,7.33
2018-09-22T10:21:38.531Z,10.60
2018-09-22T10:24:06.091Z,7.40
2018-09-22T10:26:33.583Z,9.20
2018-09-22T10:29:01.166Z,9.33
2018-09-22T10:31:28.667Z,5.47
2018-09-22T10:33:56.267Z,11.73
2018-09-22T10:36:23.793Z,6.60
2018-09-22T10:38:51.299Z,6.63
2018-09-22T10:41:18.792Z,6.30
2018-09-22T10:43:46.318Z,8.30
2018-09-22T10:46:13.948Z,4.00
2018-09-22T10:48:41.447Z,9.60
2018-09-22T10:51:08.955Z,8.13
2018-09-22T10:53:36.459Z,2.50
2018-09-22T10:56:03.965Z,5.47
2018-09-22T10:58:31.460Z,5.40
2018-09-22T11:00:59.660Z,4.63
2018-09-22T11:03:27.235Z,3.00
2018-09-22T11:05:54.697Z,3.17
2018-09-22T11:08:22.206Z,2.77
2018-09-22T11:10:49.699Z,4.20
2018-09-22T11:13:17.218Z,4.70
2018-09-22T11:15:44.752Z,5.07
2018-09-22T11:18:12.259Z,3.90
2018-09-22T11:20:39.804Z,5.57
2018-09-22T11:23:07.385Z,5.13
2018-09-22T11:25:34.922Z,6.80
2018-09-22T11:28:02.460Z,8.13
2018-09-22T11:30:30.267Z,9.27
2018-09-22T11:32:57.811Z,6.27
2018-09-22T11:35:25.415Z,7.30
2018-09-22T11:37:52.923Z,5.60
2018-09-22T11:40:20.447Z,6.23
2018-09-22T11:42:47.970Z,7.43
2018-09-22T11:45:15.481Z,4.37
2018-09-22T11:47:42.983Z,4.67
2018-09-22T11:50:10.732Z,3.53
2018-09-22T11:52:38.447Z,5.23
2018-09-22T11:55:05.977Z,5.87
2018-09-22T11:57:33.779Z,3.90
2018-09-22T12:00:01.320Z,3.30
2018-09-22T12:02:29.975Z,5.83
2018-09-22T12:04:57.492Z,3.23
2018-09-22T12:07:24.991Z,3.70
2018-09-22T12:09:52.583Z,3.87
2018-09-22T12:12:20.092Z,2.43
2018-09-22T12:14:48.732Z,5.27
2018-09-22T12:17:16.235Z,4.60
2018-09-22T12:19:44.266Z,4.53
2018-09-22T12:22:11.787Z,5.37
2018-09-22T12:24:39.316Z,4.03
2018-09-22T12:27:06.836Z,5.33
2018-09-22T12:29:34.318Z,3.90
2018-09-22T12:32:01.879Z,4.17
2018-09-22T12:34:29.412Z,2.57
2018-09-22T12:36:56.922Z,3.50
2018-09-22T12:39:24.419Z,3.97
2018-09-22T12:41:51.944Z,5.23
2018-09-22T12:44:19.453Z,5.60
2018-09-22T12:46:46.978Z,3.47
2018-09-22T12:49:14.489Z,5.33
2018-09-22T12:51:42.973Z,6.63
2018-09-22T12:54:10.478Z,4.50
2018-09-22T12:56:38.032Z,5.10
2018-09-22T12:59:05.648Z,6.00
2018-09-22T13:01:33.168Z,3.17
2018-09-22T13:04:00.666Z,6.63
2018-09-22T13:06:28.214Z,2.77
2018-09-22T13:08:55.732Z,7.10
2018-09-22T13:11:23.255Z,4.57
2018-09-22T13:13:50.759Z,6.03
2018-09-22T13:16:18.352Z,2.87
2018-09-22T13:18:46.076Z,2.90
2018-09-22T13:21:13.631Z,5.53
2018-09-22T13:23:42.099Z,4.17
2018-09-22T13:26:09.591Z,3.40
2018-09-22T13:28:37.279Z,3.53
2018-09-22T13:31:04.994Z,4.27
2018-09-22T13:33:32.727Z,4.23
2018-09-22T13:36:00.248Z,5.03
2018-09-22T13:38:28.183Z,2.40
2018-09-22T13:40:55.674Z,3.67
2018-09-22T13:43:23.200Z,4.43
2018-09-22T13:45:50.701Z,5.70
2018-09-22T13:48:18.220Z,2.93
2018-09-22T13:50:45.797Z,4.30
2018-09-22T13:53:13.659Z,4.83
2018-09-22T13:55:41.167Z,4.90
2018-09-22T13:58:08.696Z,3.83
2018-09-22T14:00:36.247Z,3.87
2018-09-22T14:03:03.742Z,3.60
2018-09-22T14:05:31.264Z,3.47
2018-09-22T14:07:58.896Z,5.50
2018-09-22T14:10:26.430Z,4.53
2018-09-22T14:12:55.205Z,3.33
2018-09-22T14:15:22.758Z,5.30
2018-09-22T14:17:50.308Z,7.30
2018-09-22T14:20:17.830Z,4.60
2018-09-22T14:22:45.334Z,4.10
2018-09-22T14:25:12.867Z,6.37
2018-09-22T14:27:40.372Z,5.23
2018-09-22T14:30:07.927Z,5.63
2018-09-22T14:32:35.543Z,4.20
2018-09-22T14:35:03.061Z,5.33
2018-09-22T14:37:30.783Z,5.47
2018-09-22T14:39:58.294Z,6.03
2018-09-22T14:42:25.821Z,7.30
2018-09-22T14:44:53.336Z,6.20
2018-09-22T14:47:20.847Z,3.93
2018-09-22T14:49:48.357Z,5.20
2018-09-22T14:52:15.922Z,7.77
2018-09-22T14:54:43.495Z,5.33
2018-09-22T14:57:11.268Z,7.37
2018-09-22T14:59:38.832Z,4.00
2018-09-22T15:02:06.586Z,5.87
2018-09-22T15:04:34.117Z,5.43
2018-09-22T15:07:01.642Z,4.83
2018-09-22T15:09:29.314Z,6.60
2018-09-22T15:11:56.852Z,3.47
2018-09-22T15:14:24.376Z,5.47
2018-09-22T15:16:51.871Z,6.10
2018-09-22T15:19:19.404Z,4.00
2018-09-22T15:21:46.925Z,3.70
2018-09-22T15:24:15.352Z,2.87
2018-09-22T15:26:42.861Z,6.27
2018-09-22T15:29:10.404Z,6.10
2018-09-22T15:31:37.928Z,2.90
2018-09-22T15:34:05.530Z,3.93
2018-09-22T15:36:33.158Z,5.20
2018-09-22T15:39:00.662Z,5.03
2018-09-22T15:41:28.235Z,4.97
2018-09-22T15:43:55.776Z,4.30
2018-09-22T15:46:23.288Z,5.90
2018-09-22T15:48:50.800Z,4.73
2018-09-22T15:51:18.336Z,5.87
2018-09-22T15:53:45.840Z,3.70
2018-09-22T15:56:13.357Z,3.87
2018-09-22T15:58:40.872Z,3.90
2018-09-22T16:01:08.380Z,7.33
2018-09-22T16:03:35.899Z,7.23
2018-09-22T16:06:03.408Z,6.27
2018-09-22T16:08:30.906Z,6.13
2018-09-22T16:10:58.432Z,3.07
2018-09-22T16:13:25.921Z,3.73
2018-09-22T16:15:53.434Z,4.07
2018-09-22T16:18:20.944Z,3.30
2018-09-22T16:20:48.507Z,2.20
2018-09-22T16:23:16.012Z,5.63
2018-09-22T16:25:43.563Z,3.17
2018-09-22T16:28:11.069Z,3.77
2018-09-22T16:30:38.592Z,3.70
2018-09-22T16:33:06.184Z,3.83
2018-09-22T16:35:33.786Z,4.93
2018-09-22T16:38:01.303Z,6.87
2018-09-22T16:40:28.815Z,4.13
2018-09-22T16:42:56.377Z,1.97
2018-09-22T16:45:23.888Z,3.43
2018-09-22T16:47:51.404Z,2.13
2018-09-22T16:50:19.053Z,5.07
2018-09-22T16:52:46.547Z,4.47
2018-09-22T16:55:14.148Z,7.20
2018-09-22T16:57:41.663Z,3.77
2018-09-22T17:00:09.155Z,6.73
2018-09-22T17:02:36.663Z,4.90
2018-09-22T17:05:04.153Z,3.23
2018-09-22T17:07:31.710Z,1.43
2018-09-22T17:09:59.861Z,3.13
2018-09-22T17:12:27.364Z,3.23
2018-09-22T17:14:54.886Z,3.33
2018-09-22T17:17:22.380Z,7.07
2018-09-22T17:19:49.920Z,5.40
2018-09-22T17:22:17.523Z,3.90
2018-09-22T17:24:45.047Z,7.23
2018-09-22T17:27:12.601Z,2.47
2018-09-22T17:29:40.112Z,3.87
2018-09-22T17:32:07.623Z,5.63
2018-09-22T17:34:35.121Z,4.70
2018-09-22T17:37:02.611Z,2.83
2018-09-22T17:39:30.131Z,3.60
2018-09-22T17:41:57.643Z,4.43
2018-09-22T17:44:25.136Z,5.50
2018-09-22T17:46:52.665Z,5.17
2018-09-22T17:49:20.189Z,5.37
2018-09-22T17:51:47.834Z,3.83
2018-09-22T17:54:15.333Z,4.00
2018-09-22T17:56:43.746Z,3.63
2018-09-22T17:59:11.235Z,2.70
2018-09-22T18:01:39.558Z,5.30
2018-09-22T18:04:07.124Z,4.83
2018-09-22T18:06:34.640Z,3.47
2018-09-22T18:09:02.230Z,6.20
2018-09-22T18:11:29.757Z,2.50
2018-09-22T18:13:57.274Z,2.43
2018-09-22T18:16:25.527Z,4.23
2018-09-22T18:18:53.046Z,1.70
2018-09-22T18:21:20.619Z,6.27
2018-09-22T18:23:48.128Z,5.40
2018-09-22T18:26:15.647Z,3.87
2018-09-22T18:28:43.179Z,2.83
2018-09-22T18:31:10.691Z,4.33
2018-09-22T18:33:38.183Z,7.17
2018-09-22T18:36:05.760Z,4.27
2018-09-22T18:38:33.275Z,5.60
2018-09-22T18:41:00.770Z,4.57
2018-09-22T18:43:28.339Z,4.90
2018-09-22T18:45:55.869Z,5.57
2018-09-22T18:48:23.427Z,6.30
2018-09-22T18:50:50.964Z,4.47
2018-09-22T18:53:18.482Z,3.23
2018-09-22T18:55:46.892Z,3.97
2018-09-22T18:58:14.392Z,4.43
2018-09-22T19:00:41.882Z,5.23
2018-09-22T19:03:09.603Z,6.43
2018-09-22T19:05:37.205Z,3.87
2018-09-22T19:08:04.925Z,6.70
2018-09-22T19:10:32.434Z,3.67
2018-09-22T19:13:01.044Z,5.13
2018-09-22T19:15:36.871Z,3.33
2018-09-22T19:19:09.891Z,4.20
2018-09-22T19:21:47.467Z,4.67
2018-09-22T19:24:25.093Z,6.80
2018-09-22T19:26:59.557Z,6.57
2018-09-22T19:29:30.952Z,6.63
2018-09-22T19:32:02.815Z,6.37
2018-09-22T19:34:33.647Z,5.00
2018-09-22T19:37:05.332Z,5.70
2018-09-22T19:39:40.374Z,4.33
2018-09-22T19:42:11.002Z,4.63
2018-09-22T19:44:42.539Z,3.33
2018-09-22T19:48:15.539Z,6.30
2018-09-22T19:50:48.260Z,3.37
2018-09-22T19:53:15.826Z,4.23
2018-09-22T19:55:43.329Z,4.47
2018-09-22T19:58:10.891Z,8.47
2018-09-22T20:00:38.364Z,7.60
2018-09-22T20:03:05.943Z,8.87
2018-09-22T20:05:33.469Z,6.20
2018-09-22T20:08:01.946Z,9.00
2018-09-22T20:10:29.435Z,9.33
2018-09-22T20:12:56.948Z,6.33
2018-09-22T20:15:24.569Z,7.50
2018-09-22T20:17:52.144Z,5.40
2018-09-22T20:20:19.675Z,9.83
2018-09-22T20:22:47.234Z,7.50
2018-09-22T20:25:15.251Z,5.17
2018-09-22T20:27:42.772Z,10.10
2018-09-22T20:30:10.325Z,7.97
2018-09-22T20:32:37.877Z,6.37
2018-09-22T20:35:05.478Z,7.87
2018-09-22T20:37:33.154Z,8.73
2018-09-22T20:40:00.674Z,6.37
2018-09-22T20:42:28.209Z,8.37
2018-09-22T20:44:55.747Z,6.00
2018-09-22T20:47:23.239Z,8.10
2018-09-22T20:49:51.402Z,5.37
2018-09-22T20:52:18.907Z,8.27
2018-09-22T20:54:46.631Z,6.90
2018-09-22T20:57:14.208Z,9.10
2018-09-22T20:59:41.717Z,8.80
2018-09-22T21:02:09.341Z,7.17
2018-09-22T21:04:36.831Z,7.67
2018-09-22T21:07:04.434Z,6.87
2018-09-22T21:09:31.984Z,7.07
2018-09-22T21:11:59.480Z,8.87
2018-09-22T21:14:26.996Z,10.93
2018-09-22T21:16:54.503Z,7.90
2018-09-22T21:19:22.074Z,10.80
2018-09-22T21:21:49.591Z,9.90
2018-09-22T21:24:17.133Z,10.03
2018-09-22T21:26:44.661Z,9.03
2018-09-22T21:29:12.182Z,10.40
2018-09-22T21:31:39.716Z,8.23
2018-09-22T21:34:07.219Z,8.97
2018-09-22T21:36:34.758Z,9.17
2018-09-22T21:39:02.416Z,10.17
2018-09-22T21:41:29.938Z,11.33
2018-09-22T21:43:57.421Z,9.60
2018-09-22T21:46:25.026Z,9.73
2018-09-22T21:48:52.531Z,8.67
2018-09-22T21:51:20.014Z,10.30
2018-09-22T21:53:47.535Z,7.90
2018-09-22T21:56:15.084Z,8.60
2018-09-22T21:58:42.595Z,8.20
2018-09-22T22:01:15.884Z,6.77
2018-09-22T22:03:44.017Z,8.10
2018-09-22T22:06:11.565Z,5.90
2018-09-22T22:08:39.128Z,8.27
2018-09-22T22:11:06.790Z,7.40
2018-09-22T22:13:34.299Z,6.53
2018-09-22T22:16:01.794Z,5.77
2018-09-22T22:18:29.316Z,6.70
2018-09-22T22:20:56.830Z,7.20
2018-09-22T22:23:24.393Z,9.37
2018-09-22T22:25:51.895Z,6.57
2018-09-22T22:28:19.395Z,11.23
2018-09-22T22:30:46.969Z,10.90
2018-09-22T22:33:14.463Z,8.13
2018-09-22T22:35:41.951Z,9.50
2018-09-22T22:38:09.467Z,9.50
2018-09-22T22:40:36.956Z,9.50
2018-09-22T22:43:05.567Z,11.33
2018-09-22T22:45:33.043Z,11.33
2018-09-22T22:48:00.571Z,9.73
2018-09-22T22:50:28.067Z,11.60
2018-09-22T22:52:55.582Z,10.53
2018-09-22T22:55:23.266Z,12.73
2018-09-22T22:57:50.759Z,15.23
2018-09-22T23:00:18.264Z,13.73
2018-09-22T23:02:45.766Z,12.00
2018-09-22T23:05:13.263Z,15.73
2018-09-22T23:07:40.759Z,13.33
2018-09-22T23:10:08.303Z,14.17
2018-09-22T23:12:35.899Z,13.03
2018-09-22T23:15:03.478Z,15.17
2018-09-22T23:17:31.013Z,17.17
2018-09-22T23:19:58.606Z,15.37
2018-09-22T23:22:26.313Z,20.20
2018-09-22T23:24:53.812Z,17.40
2018-09-22T23:27:21.317Z,16.93
2018-09-22T23:29:48.799Z,16.10
2018-09-22T23:32:16.295Z,14.03
2018-09-22T23:34:43.817Z,16.40
2018-09-22T23:37:11.316Z,15.43
2018-09-22T23:39:38.811Z,17.30
2018-09-22T23:42:06.351Z,13.73
2018-09-22T23:44:33.908Z,13.57
2018-09-22T23:47:01.443Z,16.87
2018-09-22T23:49:28.947Z,14.70
2018-09-22T23:51:56.447Z,17.97
2018-09-22T23:54:23.948Z,16.03
2018-09-22T23:56:51.447Z,12.93
2018-09-22T23:59:18.979Z,13.27
